createdAt,value
2022-12-01T00:02:02.074Z,46.50
2022-12-01T00:04:31.519Z,41.57
2022-12-01T00:07:01.617Z,31.87
2022-12-01T00:09:47.272Z,28.33
2022-12-01T00:12:15.839Z,30.57
2022-12-01T00:14:54.965Z,27.27
2022-12-01T00:17:23.233Z,29.73
2022-12-01T00:19:56.494Z,26.13
2022-12-01T00:22:26.563Z,27.47
2022-12-01T00:24:54.859Z,30.17
2022-12-01T00:27:23.566Z,28.47
2022-12-01T00:29:51.771Z,28.70
2022-12-01T00:32:25.231Z,26.40
2022-12-01T00:34:54.055Z,27.50
2022-12-01T00:37:28.629Z,24.00
2022-12-01T00:40:01.842Z,28.93
2022-12-01T00:42:34.649Z,26.63
2022-12-01T00:45:03.530Z,32.30
2022-12-01T00:47:32.485Z,31.03
2022-12-01T00:50:03.217Z,33.63
2022-12-01T00:52:33.362Z,32.73
2022-12-01T00:55:02.143Z,33.13
2022-12-01T00:57:32.802Z,28.13
2022-12-01T01:00:02.957Z,37.23
2022-12-01T01:02:31.584Z,36.80
2022-12-01T01:05:03.634Z,39.80
2022-12-01T01:07:39.884Z,41.20
2022-12-01T01:10:11.965Z,36.67
2022-12-01T01:12:41.501Z,38.53
2022-12-01T01:15:21.463Z,44.97
2022-12-01T01:17:54.075Z,45.03
2022-12-01T01:20:23.435Z,46.27
2022-12-01T01:22:54.807Z,46.63
2022-12-01T01:25:23.824Z,41.93
2022-12-01T01:27:54.751Z,49.43
2022-12-01T01:30:26.906Z,51.13
2022-12-01T01:33:03.103Z,50.50
2022-12-01T01:35:31.839Z,56.80
2022-12-01T01:38:07.624Z,57.40
2022-12-01T01:40:44.744Z,53.10
2022-12-01T01:43:16.928Z,50.13
2022-12-01T01:45:46.543Z,58.10
2022-12-01T01:48:19.605Z,54.83
2022-12-01T01:50:47.833Z,48.70
2022-12-01T01:53:17.832Z,51.13
2022-12-01T01:55:46.032Z,49.70
2022-12-01T01:58:18.495Z,49.33
2022-12-01T02:00:47.084Z,48.80
2022-12-01T02:03:20.253Z,47.83
2022-12-01T02:05:50.874Z,45.00
2022-12-01T02:08:20.525Z,46.07
2022-12-01T02:11:08.432Z,49.57
2022-12-01T02:13:44.851Z,46.73
2022-12-01T02:16:22.068Z,55.17
2022-12-01T02:19:03.901Z,48.77
2022-12-01T02:21:53.640Z,45.63
2022-12-01T02:24:53.435Z,43.57
2022-12-01T02:27:33.813Z,46.83
2022-12-01T02:30:09.475Z,48.07
2022-12-01T02:32:50.528Z,50.80
2022-12-01T02:35:28.046Z,50.40
2022-12-01T02:38:05.806Z,54.30
2022-12-01T02:40:41.801Z,53.30
2022-12-01T02:43:20.689Z,46.77
2022-12-01T02:45:55.327Z,54.70
2022-12-01T02:48:29.980Z,50.77
2022-12-01T02:51:07.592Z,46.87
2022-12-01T02:53:36.510Z,47.63
2022-12-01T02:56:08.814Z,48.60
2022-12-01T02:58:44.219Z,50.33
2022-12-01T03:01:26.580Z,47.73
2022-12-01T03:04:03.741Z,49.03
2022-12-01T03:06:46.136Z,46.77
2022-12-01T03:09:32.269Z,47.23
2022-12-01T03:12:17.958Z,39.70
2022-12-01T03:14:53.704Z,39.40
2022-12-01T03:17:27.436Z,42.57
2022-12-01T03:20:04.733Z,43.40
2022-12-01T03:22:43.389Z,42.53
2022-12-01T03:25:14.930Z,40.00
2022-12-01T03:28:20.212Z,43.80
2022-12-01T03:30:50.826Z,42.53
2022-12-01T03:33:25.892Z,38.30
2022-12-01T03:36:02.533Z,39.53
2022-12-01T03:38:31.985Z,43.60
2022-12-01T03:41:10.378Z,39.60
2022-12-01T03:43:58.302Z,44.33
2022-12-01T03:46:45.558Z,43.97
2022-12-01T03:49:16.064Z,41.90
2022-12-01T03:51:56.122Z,43.73
2022-12-01T03:54:31.675Z,45.87
2022-12-01T03:57:06.031Z,56.50
2022-12-01T03:59:36.501Z,44.17
2022-12-01T04:02:06.858Z,41.70
2022-12-01T04:04:38.667Z,33.63
2022-12-01T04:07:13.556Z,44.00
2022-12-01T04:09:43.120Z,38.10
2022-12-01T04:12:32.888Z,36.23
2022-12-01T04:15:05.766Z,39.67
2022-12-01T04:17:39.979Z,41.60
2022-12-01T04:20:12.949Z,39.30
2022-12-01T04:22:46.613Z,39.83
2022-12-01T04:25:14.800Z,32.23
2022-12-01T04:27:43.551Z,45.67
2022-12-01T04:30:12.885Z,39.33
2022-12-01T04:32:44.616Z,35.77
2022-12-01T04:35:15.845Z,40.67
2022-12-01T04:37:45.672Z,34.63
2022-12-01T04:40:14.181Z,37.73
2022-12-01T04:42:44.895Z,33.97
2022-12-01T04:45:15.403Z,38.80
2022-12-01T04:47:43.507Z,35.73
2022-12-01T04:50:12.677Z,38.90
2022-12-01T04:52:42.604Z,33.67
2022-12-01T04:55:12.865Z,36.93
2022-12-01T04:57:41.501Z,39.30
2022-12-01T05:00:14.813Z,40.67
2022-12-01T05:02:43.626Z,38.37
2022-12-01T05:05:15.916Z,39.30
2022-12-01T05:07:44.519Z,39.93
2022-12-01T05:10:19.132Z,35.97
2022-12-01T05:12:47.667Z,38.20
2022-12-01T05:15:18.932Z,37.63
2022-12-01T05:17:52.739Z,34.97
2022-12-01T05:20:40.555Z,38.73
2022-12-01T05:23:16.402Z,36.90
2022-12-01T05:25:53.677Z,36.33
2022-12-01T05:28:26.458Z,45.10
2022-12-01T05:30:58.677Z,37.93
2022-12-01T05:33:31.651Z,34.83
2022-12-01T05:35:59.939Z,45.60
2022-12-01T05:38:28.922Z,37.00
2022-12-01T05:40:58.653Z,37.20
2022-12-01T05:43:29.299Z,37.03
2022-12-01T05:46:01.328Z,38.43
2022-12-01T05:48:29.605Z,39.13
2022-12-01T05:51:01.503Z,35.00
2022-12-01T05:53:33.951Z,36.07
2022-12-01T05:56:04.149Z,33.33
2022-12-01T05:58:32.546Z,37.43
2022-12-01T06:01:01.580Z,36.30
2022-12-01T06:03:33.167Z,33.30
2022-12-01T06:06:01.898Z,31.63
2022-12-01T06:08:33.327Z,36.50
2022-12-01T06:11:07.407Z,35.03
2022-12-01T06:13:35.717Z,32.53
2022-12-01T06:16:07.177Z,37.03
2022-12-01T06:18:37.658Z,37.87
2022-12-01T06:21:08.845Z,34.10
2022-12-01T06:23:44.758Z,41.30
2022-12-01T06:26:21.166Z,41.03
2022-12-01T06:28:54.664Z,38.23
2022-12-01T06:31:23.484Z,45.23
2022-12-01T06:33:51.689Z,47.70
2022-12-01T06:36:22.021Z,49.33
2022-12-01T06:38:50.914Z,40.23
2022-12-01T06:41:20.491Z,40.87
2022-12-01T06:43:51.957Z,37.47
2022-12-01T06:46:21.940Z,40.10
2022-12-01T06:48:53.249Z,37.33
2022-12-01T06:51:25.030Z,39.70
2022-12-01T06:54:05.910Z,35.03
2022-12-01T06:56:38.581Z,41.80
2022-12-01T06:59:10.910Z,44.43
2022-12-01T07:01:42.875Z,42.57
2022-12-01T07:04:21.186Z,45.27
2022-12-01T07:06:55.289Z,48.50
2022-12-01T07:09:26.262Z,49.23
2022-12-01T07:11:58.449Z,53.80
2022-12-01T07:14:41.943Z,55.43
2022-12-01T07:17:20.632Z,48.73
2022-12-01T07:19:51.827Z,52.63
2022-12-01T07:22:21.083Z,55.03
2022-12-01T07:24:49.381Z,48.87
2022-12-01T07:27:19.011Z,53.60
2022-12-01T07:29:49.639Z,58.83
2022-12-01T07:32:19.821Z,53.77
2022-12-01T07:34:53.986Z,53.67
2022-12-01T07:37:22.343Z,55.30
2022-12-01T07:39:53.941Z,54.53
2022-12-01T07:42:27.038Z,63.33
2022-12-01T07:44:57.650Z,60.70
2022-12-01T07:47:28.075Z,61.73
2022-12-01T07:49:59.448Z,61.77
2022-12-01T07:52:27.646Z,61.90
2022-12-01T07:55:03.304Z,65.43
2022-12-01T07:57:33.188Z,62.33
2022-12-01T08:00:05.020Z,62.87
2022-12-01T08:02:46.830Z,70.47
2022-12-01T08:05:19.985Z,59.93
2022-12-01T08:07:57.046Z,64.87
2022-12-01T08:10:27.861Z,59.17
2022-12-01T08:13:04.791Z,51.77
2022-12-01T08:15:36.779Z,56.70
2022-12-01T08:18:05.369Z,60.63
2022-12-01T08:20:33.577Z,54.60
2022-12-01T08:23:05.740Z,55.37
2022-12-01T08:25:37.428Z,56.63
2022-12-01T08:28:16.866Z,50.50
2022-12-01T08:30:48.932Z,63.00
2022-12-01T08:33:17.371Z,62.03
2022-12-01T08:35:46.680Z,52.43
2022-12-01T08:38:17.053Z,58.57
2022-12-01T08:40:46.806Z,64.43
2022-12-01T08:43:49.497Z,52.57
2022-12-01T08:46:10.515Z,52.83
2022-12-01T08:48:39.153Z,60.23
2022-12-01T08:51:10.921Z,48.43
2022-12-01T08:53:45.757Z,58.63
2022-12-01T08:56:21.294Z,52.30
2022-12-01T08:58:51.816Z,52.87
2022-12-01T09:01:25.732Z,50.73
2022-12-01T09:04:06.484Z,51.50
2022-12-01T09:06:45.885Z,48.13
2022-12-01T09:09:18.057Z,54.23
2022-12-01T09:11:47.045Z,46.83
2022-12-01T09:14:20.294Z,49.43
2022-12-01T09:16:53.067Z,48.77
2022-12-01T09:19:25.052Z,46.30
2022-12-01T09:21:54.104Z,44.77
2022-12-01T09:24:24.193Z,51.10
2022-12-01T09:26:56.307Z,53.20
2022-12-01T09:29:28.754Z,48.57
2022-12-01T09:31:57.761Z,51.10
2022-12-01T09:34:29.039Z,50.93
2022-12-01T09:36:59.382Z,52.93
2022-12-01T09:39:27.592Z,52.23
2022-12-01T09:42:08.721Z,58.33
2022-12-01T09:44:41.993Z,51.53
2022-12-01T09:47:19.207Z,52.07
2022-12-01T09:49:56.536Z,55.03
2022-12-01T09:52:30.844Z,63.97
2022-12-01T09:55:11.808Z,58.60
2022-12-01T09:57:41.432Z,55.60
2022-12-01T10:00:18.131Z,57.17
2022-12-01T10:02:53.047Z,50.70
2022-12-01T10:05:26.948Z,56.30
2022-12-01T10:07:58.506Z,55.93
2022-12-01T10:10:30.052Z,63.00
2022-12-01T10:12:58.732Z,61.90
2022-12-01T10:15:42.754Z,60.07
2022-12-01T10:18:31.466Z,59.40
2022-12-01T10:21:10.165Z,54.17
2022-12-01T10:23:52.640Z,62.67
2022-12-01T10:26:28.388Z,59.83
2022-12-01T10:29:12.628Z,54.47
2022-12-01T10:31:58.717Z,68.67
2022-12-01T10:34:32.050Z,58.60
2022-12-01T10:37:00.400Z,57.20
2022-12-01T10:39:40.640Z,61.27
2022-12-01T10:42:17.538Z,67.07
2022-12-01T10:44:46.561Z,58.60
2022-12-01T10:47:24.253Z,57.23
2022-12-01T10:50:02.392Z,67.40
2022-12-01T10:52:55.104Z,58.20
2022-12-01T10:55:30.051Z,78.00
2022-12-01T10:58:07.687Z,69.87
2022-12-01T11:00:58.964Z,74.83
2022-12-01T11:03:31.931Z,75.33
2022-12-01T11:06:02.873Z,63.53
2022-12-01T11:08:38.181Z,64.37
2022-12-01T11:11:26.304Z,58.73
2022-12-01T11:13:59.152Z,62.43
2022-12-01T11:16:52.436Z,71.37
2022-12-01T11:19:29.444Z,70.03
2022-12-01T11:22:00.166Z,61.50
2022-12-01T11:24:31.898Z,66.87
2022-12-01T11:27:01.885Z,66.43
2022-12-01T11:29:37.030Z,70.40
2022-12-01T11:32:24.129Z,56.23
2022-12-01T11:34:59.987Z,59.03
2022-12-01T11:37:33.468Z,53.97
2022-12-01T11:40:19.515Z,65.90
2022-12-01T11:42:53.369Z,61.47
2022-12-01T11:45:36.057Z,51.30
2022-12-01T11:48:11.202Z,47.63
2022-12-01T11:51:15.912Z,53.00
2022-12-01T11:53:47.303Z,47.20
2022-12-01T11:56:23.276Z,52.63
2022-12-01T11:59:06.390Z,48.47
2022-12-01T12:01:49.175Z,87.53
2022-12-01T12:04:40.246Z,62.40
2022-12-01T12:07:22.497Z,48.77
2022-12-01T12:10:10.294Z,49.00
2022-12-01T12:13:11.030Z,49.73
2022-12-01T12:15:59.010Z,109.17
2022-12-01T12:18:53.055Z,48.93
2022-12-01T12:21:34.571Z,43.90
2022-12-01T12:24:31.129Z,39.63
2022-12-01T12:27:10.264Z,42.83
2022-12-01T12:29:57.468Z,51.60
2022-12-01T12:32:54.138Z,60.47
2022-12-01T12:35:36.423Z,53.37
2022-12-01T12:38:24.164Z,37.20
2022-12-01T12:41:14.537Z,50.20
2022-12-01T12:43:52.955Z,35.73
2022-12-01T12:46:32.020Z,37.70
2022-12-01T12:49:22.753Z,40.53
2022-12-01T12:51:55.852Z,33.93
2022-12-01T12:54:34.986Z,42.60
2022-12-01T12:57:21.879Z,34.60
2022-12-01T12:59:54.920Z,47.03
2022-12-01T13:02:29.062Z,36.50
2022-12-01T13:05:02.347Z,39.90
2022-12-01T13:07:38.456Z,40.07
2022-12-01T13:10:19.992Z,47.10
2022-12-01T13:12:57.749Z,42.83
2022-12-01T13:15:27.274Z,28.83
2022-12-01T13:17:59.709Z,30.50
2022-12-01T13:20:35.516Z,41.20
2022-12-01T13:23:04.723Z,31.50
2022-12-01T13:25:39.515Z,34.03
2022-12-01T13:28:31.177Z,30.13
2022-12-01T13:31:06.824Z,31.00
2022-12-01T13:33:36.647Z,32.77
2022-12-01T13:39:07.119Z,32.93
2022-12-01T13:41:41.063Z,34.27
2022-12-01T13:44:37.449Z,32.13
2022-12-01T13:47:51.604Z,29.10
2022-12-01T13:51:05.239Z,35.73
2022-12-01T13:53:40.844Z,26.43
2022-12-01T13:56:41.222Z,29.47
2022-12-01T14:00:06.747Z,30.93
2022-12-01T14:02:41.170Z,31.93
2022-12-01T14:06:00.422Z,26.63
2022-12-01T14:08:37.789Z,24.73
2022-12-01T14:11:17.172Z,23.63
2022-12-01T14:13:53.183Z,25.97
2022-12-01T14:16:23.732Z,23.83
2022-12-01T14:18:55.817Z,28.13
2022-12-01T14:21:46.975Z,36.13
2022-12-01T14:24:36.300Z,24.17
2022-12-01T14:27:15.069Z,25.47
2022-12-01T14:29:43.612Z,29.50
2022-12-01T14:32:29.576Z,24.90
2022-12-01T14:35:15.003Z,30.27
2022-12-01T14:37:47.720Z,39.30
2022-12-01T14:40:35.348Z,36.53
2022-12-01T14:43:30.991Z,26.47
2022-12-01T14:46:07.977Z,28.57
2022-12-01T14:48:44.243Z,26.40
2022-12-01T14:51:22.142Z,27.43
2022-12-01T14:53:57.411Z,33.63
2022-12-01T14:56:30.142Z,33.90
2022-12-01T14:59:02.914Z,32.60
2022-12-01T15:01:36.838Z,30.43
2022-12-01T15:04:08.836Z,33.03
2022-12-01T15:06:43.244Z,28.80
2022-12-01T15:12:10.397Z,32.43
2022-12-01T15:14:51.333Z,39.27
2022-12-01T15:17:33.267Z,38.07
2022-12-01T15:20:27.017Z,36.53
2022-12-01T15:22:59.220Z,32.87
2022-12-01T15:25:33.664Z,45.07
2022-12-01T15:28:06.506Z,41.20
2022-12-01T15:30:35.295Z,35.13
2022-12-01T15:33:03.733Z,40.97
2022-12-01T15:35:35.204Z,35.73
2022-12-01T15:38:18.123Z,40.53
2022-12-01T15:43:41.294Z,35.80
2022-12-01T15:46:17.102Z,40.03
2022-12-01T15:48:46.413Z,41.07
2022-12-01T15:51:20.784Z,41.37
2022-12-01T15:53:51.813Z,39.83
2022-12-01T15:56:30.360Z,45.90
2022-12-01T15:59:09.322Z,48.20
2022-12-01T16:01:42.210Z,40.33
2022-12-01T16:04:19.733Z,47.13
2022-12-01T16:06:57.776Z,43.10
2022-12-01T16:09:32.651Z,50.67
2022-12-01T16:12:21.958Z,49.33
2022-12-01T16:14:56.753Z,45.97
2022-12-01T16:17:43.875Z,43.27
2022-12-01T16:20:28.996Z,44.83
2022-12-01T16:23:04.613Z,41.17
2022-12-01T16:25:37.106Z,41.67
2022-12-01T16:28:08.596Z,49.87
2022-12-01T16:30:43.034Z,47.97
2022-12-01T16:33:21.410Z,43.10
2022-12-01T16:35:51.933Z,49.83
2022-12-01T16:38:25.251Z,50.47
2022-12-01T16:41:00.406Z,47.97
2022-12-01T16:43:30.276Z,44.37
2022-12-01T16:46:09.547Z,48.80
2022-12-01T16:48:38.658Z,43.70
2022-12-01T16:51:08.488Z,42.77
2022-12-01T16:53:38.508Z,50.77
2022-12-01T16:56:16.636Z,43.40
2022-12-01T16:58:50.205Z,48.83
2022-12-01T17:01:25.792Z,50.10
2022-12-01T17:03:56.472Z,49.13
2022-12-01T17:06:27.504Z,44.87
2022-12-01T17:09:09.889Z,42.57
2022-12-01T17:11:41.021Z,38.43
2022-12-01T17:14:10.052Z,41.27
2022-12-01T17:16:45.211Z,47.50
2022-12-01T17:19:13.490Z,48.47
2022-12-01T17:21:42.046Z,42.23
2022-12-01T17:24:15.035Z,43.70
2022-12-01T17:26:50.884Z,45.63
2022-12-01T17:29:20.742Z,47.23
2022-12-01T17:31:52.933Z,47.93
2022-12-01T17:34:22.480Z,52.33
2022-12-01T17:36:52.630Z,62.83
2022-12-01T17:39:23.150Z,60.13
2022-12-01T17:41:57.460Z,59.77
2022-12-01T17:44:27.913Z,50.57
2022-12-01T17:46:56.930Z,52.03
2022-12-01T17:49:25.411Z,45.60
2022-12-01T17:51:53.614Z,45.00
2022-12-01T17:54:25.330Z,45.50
2022-12-01T17:56:54.045Z,49.60
2022-12-01T17:59:24.815Z,48.13
2022-12-01T18:01:55.911Z,45.20
2022-12-01T18:04:29.813Z,44.30
2022-12-01T18:06:58.582Z,48.27
2022-12-01T18:09:32.866Z,45.40
2022-12-01T18:12:01.664Z,51.23
2022-12-01T18:14:32.732Z,45.87
2022-12-01T18:17:03.327Z,56.00
2022-12-01T18:19:34.389Z,95.70
2022-12-01T18:22:04.924Z,55.37
2022-12-01T18:24:35.024Z,48.57
2022-12-01T18:27:06.278Z,46.97
2022-12-01T18:29:34.971Z,47.93
2022-12-01T18:32:08.102Z,49.70
2022-12-01T18:34:36.816Z,46.60
2022-12-01T18:37:10.161Z,45.93
2022-12-01T18:39:46.598Z,44.33
2022-12-01T18:42:18.492Z,45.47
2022-12-01T18:44:49.732Z,47.07
2022-12-01T18:47:30.467Z,38.47
2022-12-01T18:49:59.617Z,40.57
2022-12-01T18:52:33.586Z,45.50
2022-12-01T18:55:05.822Z,44.57
2022-12-01T18:57:37.989Z,53.87
2022-12-01T19:00:10.089Z,53.87
2022-12-01T19:02:39.622Z,52.73
2022-12-01T19:05:11.354Z,53.30
2022-12-01T19:07:48.868Z,49.20
2022-12-01T19:10:21.050Z,55.13
2022-12-01T19:12:56.527Z,50.10
2022-12-01T19:15:25.950Z,50.67
2022-12-01T19:17:56.014Z,46.00
2022-12-01T19:20:25.142Z,51.73
2022-12-01T19:23:01.976Z,48.27
2022-12-01T19:25:39.208Z,46.77
2022-12-01T19:28:11.994Z,46.33
2022-12-01T19:30:48.094Z,50.77
2022-12-01T19:33:23.962Z,61.50
2022-12-01T19:35:59.981Z,59.70
2022-12-01T19:38:31.144Z,57.93
2022-12-01T19:41:01.397Z,49.23
2022-12-01T19:43:40.485Z,58.27
2022-12-01T19:46:12.786Z,55.47
2022-12-01T19:48:43.647Z,51.67
2022-12-01T19:51:26.553Z,60.17
2022-12-01T19:54:02.342Z,53.10
2022-12-01T19:56:33.967Z,51.20
2022-12-01T19:59:07.900Z,58.50
2022-12-01T20:01:41.291Z,54.17
2022-12-01T20:04:18.051Z,54.40
2022-12-01T20:06:50.358Z,52.60
2022-12-01T20:09:27.337Z,55.43
2022-12-01T20:11:57.080Z,50.07
2022-12-01T20:14:28.083Z,52.00
2022-12-01T20:16:56.507Z,62.20
2022-12-01T20:19:27.410Z,52.57
2022-12-01T20:22:00.100Z,52.37
2022-12-01T20:24:31.847Z,55.87
2022-12-01T20:27:07.875Z,47.67
2022-12-01T20:29:38.648Z,52.53
2022-12-01T20:32:10.262Z,48.50
2022-12-01T20:34:42.794Z,52.20
2022-12-01T20:37:13.986Z,56.47
2022-12-01T20:39:43.108Z,61.13
2022-12-01T20:42:18.660Z,64.77
2022-12-01T20:44:50.120Z,74.10
2022-12-01T20:47:22.733Z,81.03
2022-12-01T20:49:58.325Z,76.97
2022-12-01T20:52:31.034Z,80.80
2022-12-01T20:55:04.238Z,74.77
2022-12-01T20:57:39.490Z,68.13
2022-12-01T21:00:14.326Z,71.57
2022-12-01T21:02:44.900Z,68.67
2022-12-01T21:05:16.943Z,61.60
2022-12-01T21:07:45.711Z,64.20
2022-12-01T21:10:19.952Z,66.13
2022-12-01T21:13:12.967Z,58.43
2022-12-01T21:15:52.161Z,55.57
2022-12-01T21:18:27.010Z,53.43
2022-12-01T21:21:08.210Z,54.13
2022-12-01T21:23:43.013Z,47.13
2022-12-01T21:26:16.227Z,49.53
2022-12-01T21:28:49.562Z,48.80
2022-12-01T21:31:18.070Z,58.53
2022-12-01T21:33:47.747Z,53.80
2022-12-01T21:36:18.328Z,54.20
2022-12-01T21:38:52.279Z,50.43
2022-12-01T21:41:25.985Z,48.37
2022-12-01T21:44:04.229Z,51.37
2022-12-01T21:46:37.192Z,47.83
2022-12-01T21:49:14.250Z,45.70
2022-12-01T21:51:42.994Z,50.33
2022-12-01T21:54:18.279Z,51.53
2022-12-01T21:56:52.795Z,51.83
2022-12-01T21:59:31.586Z,45.13
2022-12-01T22:02:48.667Z,57.03
2022-12-01T22:05:34.809Z,53.20
2022-12-01T22:08:16.479Z,61.17
2022-12-01T22:11:02.542Z,60.30
2022-12-01T22:13:48.160Z,53.97
2022-12-01T22:16:24.589Z,56.30
2022-12-01T22:18:55.804Z,46.67
2022-12-01T22:21:37.084Z,50.70
2022-12-01T22:24:38.263Z,54.30
2022-12-01T22:27:35.340Z,50.33
2022-12-01T22:30:19.330Z,45.47
2022-12-01T22:32:59.659Z,49.30
2022-12-01T22:35:34.311Z,57.93
2022-12-01T22:38:38.273Z,45.23
2022-12-01T22:41:13.043Z,50.17
2022-12-01T22:43:59.586Z,50.90
2022-12-01T22:46:36.582Z,47.27
2022-12-01T22:49:22.376Z,45.90
2022-12-01T22:51:57.361Z,44.77
2022-12-01T22:54:43.441Z,51.87
2022-12-01T22:57:33.775Z,57.33
2022-12-01T23:00:17.582Z,56.37
2022-12-01T23:02:49.350Z,53.00
2022-12-01T23:05:25.597Z,48.23
2022-12-01T23:07:55.474Z,43.93
2022-12-01T23:10:43.234Z,45.40
2022-12-01T23:13:24.114Z,42.33
2022-12-01T23:15:54.525Z,54.50
2022-12-01T23:18:39.159Z,43.80
2022-12-01T23:21:11.908Z,51.23
2022-12-01T23:23:40.075Z,45.87
2022-12-01T23:26:20.138Z,50.27
2022-12-01T23:28:52.067Z,44.97
2022-12-01T23:31:20.352Z,46.20
2022-12-01T23:33:48.704Z,45.27
2022-12-01T23:36:23.136Z,51.17
2022-12-01T23:38:54.167Z,48.43
2022-12-01T23:41:30.251Z,52.50
2022-12-01T23:44:07.219Z,46.30
2022-12-01T23:46:37.629Z,45.03
2022-12-01T23:49:23.859Z,48.07
2022-12-01T23:51:56.133Z,48.20
2022-12-01T23:54:30.359Z,50.67
2022-12-01T23:57:02.804Z,48.43
2022-12-01T23:59:33.265Z,53.00
